sensor_id;sensor_type;location;lat;lon;timestamp;pressure;altitude;pressure_sealevel;temperature;humidity
2268;BME280;11052;43.338;25.502;2024-01-16T00:00:29;99001.56;;;3.14;100.00
2268;BME280;11052;43.338;25.502;2024-01-16T00:02:56;98994.56;;;3.22;100.00
2268;BME280;11052;43.338;25.502;2024-01-16T00:05:25;98992.78;;;3.25;100.00
2268;BME280;11052;43.338;25.502;2024-01-16T00:07:52;98998.84;;;3.21;100.00
2268;BME280;11052;43.338;25.502;2024-01-16T00:10:19;98997.13;;;3.22;100.00
2268;BME280;11052;43.338;25.502;2024-01-16T00:12:46;98997.97;;;3.22;100.00
2268;BME280;11052;43.338;25.502;2024-01-16T00:15:14;98993.66;;;3.24;100.00
2268;BME280;11052;43.338;25.502;2024-01-16T00:17:41;98996.19;;;3.26;100.00
2268;BME280;11052;43.338;25.502;2024-01-16T00:20:09;98994.53;;;3.23;100.00
2268;BME280;11052;43.338;25.502;2024-01-16T00:22:38;99007.41;;;3.20;100.00
2268;BME280;11052;43.338;25.502;2024-01-16T00:25:06;99000.63;;;3.18;100.00
2268;BME280;11052;43.338;25.502;2024-01-16T00:27:33;98992.94;;;3.18;100.00
2268;BME280;11052;43.338;25.502;2024-01-16T00:30:01;99001.44;;;3.20;100.00
2268;BME280;11052;43.338;25.502;2024-01-16T00:32:28;99010.03;;;3.17;100.00
2268;BME280;11052;43.338;25.502;2024-01-16T00:34:55;98999.72;;;3.20;100.00
2268;BME280;11052;43.338;25.502;2024-01-16T00:37:22;99005.56;;;3.27;100.00
2268;BME280;11052;43.338;25.502;2024-01-16T00:39:51;99009.84;;;3.26;100.00
2268;BME280;11052;43.338;25.502;2024-01-16T00:42:18;99014.94;;;3.28;100.00
2268;BME280;11052;43.338;25.502;2024-01-16T00:44:46;99025.19;;;3.26;100.00
2268;BME280;11052;43.338;25.502;2024-01-16T00:47:13;99022.69;;;3.25;100.00
2268;BME280;11052;43.338;25.502;2024-01-16T00:49:40;99027.88;;;3.20;100.00
2268;BME280;11052;43.338;25.502;2024-01-16T00:52:07;99020.31;;;3.16;100.00
2268;BME280;11052;43.338;25.502;2024-01-16T00:54:35;99027.09;;;3.17;100.00
2268;BME280;11052;43.338;25.502;2024-01-16T00:57:04;99031.31;;;3.19;100.00
2268;BME280;11052;43.338;25.502;2024-01-16T00:59:31;99027.03;;;3.20;100.00
2268;BME280;11052;43.338;25.502;2024-01-16T01:01:59;99021.16;;;3.16;100.00
2268;BME280;11052;43.338;25.502;2024-01-16T01:04:26;99019.53;;;3.12;100.00
2268;BME280;11052;43.338;25.502;2024-01-16T01:06:53;99017.72;;;3.17;100.00
2268;BME280;11052;43.338;25.502;2024-01-16T01:09:20;99022.94;;;3.13;100.00
2268;BME280;11052;43.338;25.502;2024-01-16T01:11:48;99032.31;;;3.12;100.00
2268;BME280;11052;43.338;25.502;2024-01-16T01:14:16;99033.13;;;3.14;100.00
2268;BME280;11052;43.338;25.502;2024-01-16T01:16:44;99027.09;;;3.17;100.00
2268;BME280;11052;43.338;25.502;2024-01-16T01:19:11;99031.56;;;3.07;100.00
2268;BME280;11052;43.338;25.502;2024-01-16T01:21:38;99023.88;;;3.07;100.00
2268;BME280;11052;43.338;25.502;2024-01-16T01:24:05;99031.56;;;3.07;100.00
2268;BME280;11052;43.338;25.502;2024-01-16T01:26:33;99031.56;;;3.07;100.00
2268;BME280;11052;43.338;25.502;2024-01-16T01:29:00;99045.25;;;3.06;100.00
2268;BME280;11052;43.338;25.502;2024-01-16T01:31:29;99055.50;;;3.06;100.00
2268;BME280;11052;43.338;25.502;2024-01-16T01:33:55;99063.25;;;3.02;100.00
2268;BME280;11052;43.338;25.502;2024-01-16T01:36:22;99061.63;;;2.97;100.00
2268;BME280;11052;43.338;25.502;2024-01-16T01:38:49;99071.81;;;3.01;100.00
2268;BME280;11052;43.338;25.502;2024-01-16T01:41:17;99080.47;;;2.93;100.00
2268;BME280;11052;43.338;25.502;2024-01-16T01:43:44;99080.34;;;3.01;100.00
2268;BME280;11052;43.338;25.502;2024-01-16T01:46:13;99084.72;;;2.94;100.00
2268;BME280;11052;43.338;25.502;2024-01-16T01:48:44;99082.03;;;3.01;100.00
2268;BME280;11052;43.338;25.502;2024-01-16T01:51:14;99092.84;;;3.16;100.00
2268;BME280;11052;43.338;25.502;2024-01-16T01:53:42;99101.72;;;3.42;100.00
2268;BME280;11052;43.338;25.502;2024-01-16T01:56:14;99103.38;;;3.44;100.00
2268;BME280;11052;43.338;25.502;2024-01-16T01:58:43;99113.34;;;3.56;100.00
2268;BME280;11052;43.338;25.502;2024-01-16T02:01:11;99103.81;;;3.63;100.00
2268;BME280;11052;43.338;25.502;2024-01-16T02:03:44;99112.31;;;3.65;100.00
2268;BME280;11052;43.338;25.502;2024-01-16T02:06:12;99120.13;;;3.59;100.00
2268;BME280;11052;43.338;25.502;2024-01-16T02:08:41;99126.31;;;3.49;100.00
2268;BME280;11052;43.338;25.502;2024-01-16T02:11:08;99138.41;;;3.42;100.00
2268;BME280;11052;43.338;25.502;2024-01-16T02:13:36;99152.75;;;3.49;100.00
2268;BME280;11052;43.338;25.502;2024-01-16T02:16:03;99158.75;;;3.48;100.00
2268;BME280;11052;43.338;25.502;2024-01-16T02:18:31;99162.28;;;3.44;100.00
2268;BME280;11052;43.338;25.502;2024-01-16T02:21:03;99180.06;;;3.50;100.00
2268;BME280;11052;43.338;25.502;2024-01-16T02:23:33;99185.94;;;3.55;100.00
2268;BME280;11052;43.338;25.502;2024-01-16T02:26:01;99189.31;;;3.57;100.00
2268;BME280;11052;43.338;25.502;2024-01-16T02:28:29;99198.78;;;3.54;100.00
2268;BME280;11052;43.338;25.502;2024-01-16T02:30:57;99195.41;;;3.52;100.00
2268;BME280;11052;43.338;25.502;2024-01-16T02:33:24;99201.44;;;3.49;100.00
2268;BME280;11052;43.338;25.502;2024-01-16T02:35:51;99209.06;;;3.52;100.00
2268;BME280;11052;43.338;25.502;2024-01-16T02:38:18;99218.47;;;3.52;100.00
2268;BME280;11052;43.338;25.502;2024-01-16T02:40:47;99225.25;;;3.54;100.00
2268;BME280;11052;43.338;25.502;2024-01-16T02:43:14;99237.94;;;3.60;100.00
2268;BME280;11052;43.338;25.502;2024-01-16T02:45:42;99249.81;;;3.65;100.00
2268;BME280;11052;43.338;25.502;2024-01-16T02:48:09;99260.06;;;3.65;100.00
2268;BME280;11052;43.338;25.502;2024-01-16T02:50:37;99251.47;;;3.69;100.00
2268;BME280;11052;43.338;25.502;2024-01-16T02:53:04;99269.34;;;3.72;100.00
2268;BME280;11052;43.338;25.502;2024-01-16T02:55:31;99281.22;;;3.76;100.00
2268;BME280;11052;43.338;25.502;2024-01-16T02:58:00;99294.91;;;3.75;100.00
2268;BME280;11052;43.338;25.502;2024-01-16T03:00:29;99296.41;;;3.86;100.00
2268;BME280;11052;43.338;25.502;2024-01-16T03:02:56;99303.09;;;3.93;100.00
2268;BME280;11052;43.338;25.502;2024-01-16T03:05:24;99319.38;;;3.91;100.00
2268;BME280;11052;43.338;25.502;2024-01-16T03:07:51;99336.28;;;4.01;100.00
2268;BME280;11052;43.338;25.502;2024-01-16T03:10:18;99343.97;;;4.01;100.00
2268;BME280;11052;43.338;25.502;2024-01-16T03:12:45;99360.19;;;4.03;100.00
2268;BME280;11052;43.338;25.502;2024-01-16T03:15:14;99370.66;;;3.91;100.00
2268;BME280;11052;43.338;25.502;2024-01-16T03:17:41;99385.47;;;3.75;100.00
2268;BME280;11052;43.338;25.502;2024-01-16T03:20:09;99393.97;;;3.77;100.00
2268;BME280;11052;43.338;25.502;2024-01-16T03:22:37;99411.28;;;3.63;100.00
2268;BME280;11052;43.338;25.502;2024-01-16T03:25:05;99419.78;;;3.65;100.00
2268;BME280;11052;43.338;25.502;2024-01-16T03:27:32;99442.19;;;3.54;100.00
2268;BME280;11052;43.338;25.502;2024-01-16T03:30:00;99449.28;;;3.38;100.00
2268;BME280;11052;43.338;25.502;2024-01-16T03:32:29;99460.31;;;3.43;100.00
2268;BME280;11052;43.338;25.502;2024-01-16T03:34:56;99473.97;;;3.42;100.00
2268;BME280;11052;43.338;25.502;2024-01-16T03:37:23;99483.53;;;3.31;100.00
2268;BME280;11052;43.338;25.502;2024-01-16T03:39:50;99486.94;;;3.32;100.00
2268;BME280;11052;43.338;25.502;2024-01-16T03:42:18;99499.72;;;3.33;100.00
2268;BME280;11052;43.338;25.502;2024-01-16T03:44:45;99499.88;;;3.21;100.00
2268;BME280;11052;43.338;25.502;2024-01-16T03:47:12;99511.00;;;3.18;100.00
2268;BME280;11052;43.338;25.502;2024-01-16T03:49:41;99525.69;;;3.06;100.00
2268;BME280;11052;43.338;25.502;2024-01-16T03:52:08;99530.03;;;2.97;100.00
2268;BME280;11052;43.338;25.502;2024-01-16T03:54:35;99540.22;;;3.02;100.00
2268;BME280;11052;43.338;25.502;2024-01-16T03:57:03;99557.38;;;2.95;100.00
2268;BME280;11052;43.338;25.502;2024-01-16T03:59:30;99545.38;;;3.01;100.00
2268;BME280;11052;43.338;25.502;2024-01-16T04:01:57;99549.72;;;2.94;100.00
2268;BME280;11052;43.338;25.502;2024-01-16T04:04:24;99564.13;;;3.01;100.00
2268;BME280;11052;43.338;25.502;2024-01-16T04:06:53;99565.97;;;2.90;100.00
2268;BME280;11052;43.338;25.502;2024-01-16T04:09:20;99563.47;;;2.85;100.00
2268;BME280;11052;43.338;25.502;2024-01-16T04:11:50;99578.75;;;2.90;100.00
2268;BME280;11052;43.338;25.502;2024-01-16T04:14:17;99577.09;;;2.87;100.00
2268;BME280;11052;43.338;25.502;2024-01-16T04:16:44;99576.38;;;2.75;100.00
2268;BME280;11052;43.338;25.502;2024-01-16T04:19:12;99584.06;;;2.73;100.00
2268;BME280;11052;43.338;25.502;2024-01-16T04:21:39;99590.88;;;2.74;100.00
2268;BME280;11052;43.338;25.502;2024-01-16T04:24:08;99602.81;;;2.72;100.00
2268;BME280;11052;43.338;25.502;2024-01-16T04:26:36;99607.91;;;2.77;100.00
2268;BME280;11052;43.338;25.502;2024-01-16T04:29:03;99613.91;;;2.74;100.00
2268;BME280;11052;43.338;25.502;2024-01-16T04:31:31;99619.91;;;2.69;100.00
2268;BME280;11052;43.338;25.502;2024-01-16T04:33:58;99622.41;;;2.76;100.00
2268;BME280;11052;43.338;25.502;2024-01-16T04:36:25;99643.78;;;2.69;100.00
2268;BME280;11052;43.338;25.502;2024-01-16T04:38:52;99642.09;;;2.70;100.00
2268;BME280;11052;43.338;25.502;2024-01-16T04:41:21;99648.03;;;2.72;100.00
2268;BME280;11052;43.338;25.502;2024-01-16T04:43:48;99661.63;;;2.78;100.00
2268;BME280;11052;43.338;25.502;2024-01-16T04:46:15;99670.22;;;2.73;100.00
2268;BME280;11052;43.338;25.502;2024-01-16T04:48:43;99681.22;;;2.81;100.00
2268;BME280;11052;43.338;25.502;2024-01-16T04:51:10;99687.16;;;2.86;100.00
2268;BME280;11052;43.338;25.502;2024-01-16T04:53:37;99688.09;;;2.74;100.00
2268;BME280;11052;43.338;25.502;2024-01-16T04:56:06;99695.72;;;2.82;100.00
2268;BME280;11052;43.338;25.502;2024-01-16T04:58:34;99694.84;;;2.84;100.00
2268;BME280;11052;43.338;25.502;2024-01-16T05:01:02;99694.00;;;2.84;100.00
2268;BME280;11052;43.338;25.502;2024-01-16T05:03:29;99705.94;;;2.83;100.00
2268;BME280;11052;43.338;25.502;2024-01-16T05:05:56;99718.75;;;2.83;100.00
2268;BME280;11052;43.338;25.502;2024-01-16T05:08:23;99721.31;;;2.82;100.00
2268;BME280;11052;43.338;25.502;2024-01-16T05:10:51;99721.34;;;2.79;100.00
2268;BME280;11052;43.338;25.502;2024-01-16T05:13:18;99706.78;;;2.85;100.00
2268;BME280;11052;43.338;25.502;2024-01-16T05:15:46;99711.00;;;2.91;100.00
2268;BME280;11052;43.338;25.502;2024-01-16T05:18:14;99711.84;;;2.93;100.00
2268;BME280;11052;43.338;25.502;2024-01-16T05:20:41;99719.56;;;2.87;100.00
2268;BME280;11052;43.338;25.502;2024-01-16T05:23:08;99734.88;;;2.91;100.00
2268;BME280;11052;43.338;25.502;2024-01-16T05:25:36;99741.63;;;3.02;100.00
2268;BME280;11052;43.338;25.502;2024-01-16T05:28:03;99745.00;;;3.05;100.00
2268;BME280;11052;43.338;25.502;2024-01-16T05:30:31;99747.63;;;3.01;100.00
2268;BME280;11052;43.338;25.502;2024-01-16T05:33:00;99751.84;;;3.03;100.00
2268;BME280;11052;43.338;25.502;2024-01-16T05:35:28;99765.53;;;3.02;100.00
2268;BME280;11052;43.338;25.502;2024-01-16T05:37:56;99764.63;;;3.06;100.00
2268;BME280;11052;43.338;25.502;2024-01-16T05:40:24;99772.31;;;3.08;100.00
2268;BME280;11052;43.338;25.502;2024-01-16T05:42:52;99776.56;;;3.07;100.00
2268;BME280;11052;43.338;25.502;2024-01-16T05:45:19;99786.81;;;3.09;100.00
2268;BME280;11052;43.338;25.502;2024-01-16T05:47:46;99794.44;;;3.15;100.00
2268;BME280;11052;43.338;25.502;2024-01-16T05:50:15;99805.63;;;3.02;100.00
2268;BME280;11052;43.338;25.502;2024-01-16T05:52:44;99803.09;;;3.00;100.00
2268;BME280;11052;43.338;25.502;2024-01-16T05:55:11;99800.50;;;3.02;100.00
2268;BME280;11052;43.338;25.502;2024-01-16T05:57:38;99804.75;;;3.06;100.00
2268;BME280;11052;43.338;25.502;2024-01-16T06:00:06;99819.25;;;3.07;100.00
2268;BME280;11052;43.338;25.502;2024-01-16T06:02:34;99820.94;;;3.11;100.00
2268;BME280;11052;43.338;25.502;2024-01-16T06:05:01;99821.75;;;3.16;100.00
2268;BME280;11052;43.338;25.502;2024-01-16T06:07:30;99831.19;;;3.08;100.00
2268;BME280;11052;43.338;25.502;2024-01-16T06:09:57;99837.16;;;3.07;100.00
2268;BME280;11052;43.338;25.502;2024-01-16T06:12:24;99849.91;;;3.17;100.00
2268;BME280;11052;43.338;25.502;2024-01-16T06:14:52;99856.72;;;3.17;100.00
2268;BME280;11052;43.338;25.502;2024-01-16T06:17:19;99864.44;;;3.14;100.00
2268;BME280;11052;43.338;25.502;2024-01-16T06:19:46;99875.50;;;3.19;100.00
2268;BME280;11052;43.338;25.502;2024-01-16T06:22:13;99883.16;;;3.20;100.00
2268;BME280;11052;43.338;25.502;2024-01-16T06:24:42;99885.72;;;3.22;100.00
2268;BME280;11052;43.338;25.502;2024-01-16T06:27:09;99894.25;;;3.22;100.00
2268;BME280;11052;43.338;25.502;2024-01-16T06:29:36;99893.47;;;3.13;100.00
2268;BME280;11052;43.338;25.502;2024-01-16T06:32:04;99897.72;;;3.17;100.00
2268;BME280;11052;43.338;25.502;2024-01-16T06:34:31;99907.13;;;3.13;100.00
2268;BME280;11052;43.338;25.502;2024-01-16T06:36:58;99910.50;;;3.20;100.00
2268;BME280;11052;43.338;25.502;2024-01-16T06:39:26;99921.63;;;3.16;100.00
2268;BME280;11052;43.338;25.502;2024-01-16T06:41:54;99925.84;;;3.20;100.00
2268;BME280;11052;43.338;25.502;2024-01-16T06:44:21;99934.38;;;3.20;100.00
2268;BME280;11052;43.338;25.502;2024-01-16T06:46:49;99934.41;;;3.16;100.00
2268;BME280;11052;43.338;25.502;2024-01-16T06:49:16;99940.31;;;3.28;100.00
2268;BME280;11052;43.338;25.502;2024-01-16T06:51:43;99950.53;;;3.35;100.00
2268;BME280;11052;43.338;25.502;2024-01-16T06:54:10;99945.38;;;3.36;100.00
2268;BME280;11052;43.338;25.502;2024-01-16T06:56:37;99950.47;;;3.42;100.00
2268;BME280;11052;43.338;25.502;2024-01-16T06:59:06;99956.47;;;3.38;100.00
2268;BME280;11052;43.338;25.502;2024-01-16T07:01:33;99958.06;;;3.50;100.00
2268;BME280;11052;43.338;25.502;2024-01-16T07:04:00;99961.56;;;3.46;100.00
2268;BME280;11052;43.338;25.502;2024-01-16T07:06:27;99976.88;;;3.49;100.00
2268;BME280;11052;43.338;25.502;2024-01-16T07:08:55;99988.09;;;3.37;100.00
2268;BME280;11052;43.338;25.502;2024-01-16T07:11:22;99978.66;;;3.42;100.00
2268;BME280;11052;43.338;25.502;2024-01-16T07:13:49;99976.09;;;3.44;100.00
2268;BME280;11052;43.338;25.502;2024-01-16T07:16:17;99987.13;;;3.47;100.00
2268;BME280;11052;43.338;25.502;2024-01-16T07:18:45;99998.22;;;3.52;100.00
2268;BME280;11052;43.338;25.502;2024-01-16T07:21:18;100004.16;;;3.54;100.00
2268;BME280;11052;43.338;25.502;2024-01-16T07:23:46;100004.97;;;3.62;100.00
2268;BME280;11052;43.338;25.502;2024-01-16T07:26:13;100021.94;;;3.79;100.00
2268;BME280;11052;43.338;25.502;2024-01-16T07:28:42;100020.19;;;3.87;100.00
2268;BME280;11052;43.338;25.502;2024-01-16T07:31:09;100026.97;;;3.94;100.00
2268;BME280;11052;43.338;25.502;2024-01-16T07:33:38;100033.81;;;3.95;100.00
2268;BME280;11052;43.338;25.502;2024-01-16T07:36:07;100028.66;;;3.97;100.00
2268;BME280;11052;43.338;25.502;2024-01-16T07:38:35;100044.06;;;3.95;100.00
2268;BME280;11052;43.338;25.502;2024-01-16T07:41:03;100053.44;;;3.99;100.00
2268;BME280;11052;43.338;25.502;2024-01-16T07:43:31;100057.72;;;3.97;100.00
2268;BME280;11052;43.338;25.502;2024-01-16T07:45:58;100061.16;;;3.96;100.00
2268;BME280;11052;43.338;25.502;2024-01-16T07:48:27;100064.59;;;3.90;100.00
2268;BME280;11052;43.338;25.502;2024-01-16T07:50:56;100074.03;;;3.88;100.00
2268;BME280;11052;43.338;25.502;2024-01-16T07:53:23;100076.66;;;3.78;100.00
2268;BME280;11052;43.338;25.502;2024-01-16T07:55:53;100086.00;;;3.85;100.00
2268;BME280;11052;43.338;25.502;2024-01-16T07:58:21;100097.16;;;3.79;100.00
2268;BME280;11052;43.338;25.502;2024-01-16T08:00:49;100093.72;;;3.82;100.00
2268;BME280;11052;43.338;25.502;2024-01-16T08:03:16;100099.69;;;3.85;100.00
2268;BME280;11052;43.338;25.502;2024-01-16T08:05:43;100101.44;;;3.77;100.00
2268;BME280;11052;43.338;25.502;2024-01-16T08:08:12;100110.00;;;3.70;100.00
2268;BME280;11052;43.338;25.502;2024-01-16T08:10:41;100112.56;;;3.73;100.00
2268;BME280;11052;43.338;25.502;2024-01-16T08:13:08;100121.81;;;4.02;100.00
2268;BME280;11052;43.338;25.502;2024-01-16T08:15:36;100123.25;;;4.36;100.00
2268;BME280;11052;43.338;25.502;2024-01-16T08:18:03;100133.44;;;4.45;100.00
2268;BME280;11052;43.338;25.502;2024-01-16T08:20:31;100125.81;;;4.35;100.00
2268;BME280;11052;43.338;25.502;2024-01-16T08:22:58;100137.75;;;4.40;100.00
2268;BME280;11052;43.338;25.502;2024-01-16T08:25:26;100137.78;;;4.37;100.00
2268;BME280;11052;43.338;25.502;2024-01-16T08:27:54;100160.88;;;4.34;100.00
2268;BME280;11052;43.338;25.502;2024-01-16T08:30:21;100166.84;;;4.38;100.00
2268;BME280;11052;43.338;25.502;2024-01-16T08:32:48;100172.78;;;4.44;100.00
2268;BME280;11052;43.338;25.502;2024-01-16T08:35:15;100177.63;;;4.82;100.00
2268;BME280;11052;43.338;25.502;2024-01-16T08:37:42;100182.31;;;5.28;100.00
2268;BME280;11052;43.338;25.502;2024-01-16T08:40:10;100192.31;;;5.54;100.00
2268;BME280;11052;43.338;25.502;2024-01-16T08:42:39;100207.56;;;5.68;100.00
2268;BME280;11052;43.338;25.502;2024-01-16T08:45:07;100198.22;;;5.60;100.00
2268;BME280;11052;43.338;25.502;2024-01-16T08:47:34;100209.50;;;5.47;100.00
2268;BME280;11052;43.338;25.502;2024-01-16T08:50:02;100204.28;;;5.55;100.00
2268;BME280;11052;43.338;25.502;2024-01-16T08:52:29;100216.19;;;5.65;100.00
2268;BME280;11052;43.338;25.502;2024-01-16T08:54:56;100218.88;;;5.54;100.00
2268;BME280;11052;43.338;25.502;2024-01-16T08:57:24;100230.84;;;5.55;100.00
2268;BME280;11052;43.338;25.502;2024-01-16T08:59:53;100233.06;;;5.90;100.00
2268;BME280;11052;43.338;25.502;2024-01-16T09:02:20;100228.38;;;6.20;100.00
2268;BME280;11052;43.338;25.502;2024-01-16T09:04:47;100217.13;;;6.25;100.00
2268;BME280;11052;43.338;25.502;2024-01-16T09:07:16;100211.69;;;6.47;100.00
2268;BME280;11052;43.338;25.502;2024-01-16T09:09:44;100228.06;;;6.43;100.00
2268;BME280;11052;43.338;25.502;2024-01-16T09:12:11;100243.69;;;6.29;100.00
2268;BME280;11052;43.338;25.502;2024-01-16T09:14:39;100263.50;;;6.22;100.00
2268;BME280;11052;43.338;25.502;2024-01-16T09:17:08;100248.25;;;6.09;100.00
2268;BME280;11052;43.338;25.502;2024-01-16T09:19:36;100254.97;;;6.19;100.00
2268;BME280;11052;43.338;25.502;2024-01-16T09:22:03;100268.38;;;6.44;100.00
2268;BME280;11052;43.338;25.502;2024-01-16T09:24:30;100270.69;;;6.62;100.00
2268;BME280;11052;43.338;25.502;2024-01-16T09:26:57;100299.91;;;6.60;100.00
2268;BME280;11052;43.338;25.502;2024-01-16T09:29:25;100297.59;;;6.41;100.00
2268;BME280;11052;43.338;25.502;2024-01-16T09:31:53;100309.09;;;6.11;100.00
2268;BME280;11052;43.338;25.502;2024-01-16T09:34:21;100307.59;;;5.95;100.00
2268;BME280;11052;43.338;25.502;2024-01-16T09:36:48;100308.63;;;5.76;100.00
2268;BME280;11052;43.338;25.502;2024-01-16T09:39:16;100300.22;;;5.60;100.00
2268;BME280;11052;43.338;25.502;2024-01-16T09:41:44;100301.06;;;5.62;100.00
2268;BME280;11052;43.338;25.502;2024-01-16T09:44:12;100300.19;;;5.63;100.00
2268;BME280;11052;43.338;25.502;2024-01-16T09:46:40;100298.47;;;5.65;100.00
2268;BME280;11052;43.338;25.502;2024-01-16T09:49:12;100303.53;;;5.71;100.00
2268;BME280;11052;43.338;25.502;2024-01-16T09:51:42;100293.34;;;5.62;100.00
2268;BME280;11052;43.338;25.502;2024-01-16T09:54:10;100303.56;;;5.70;100.00
2268;BME280;11052;43.338;25.502;2024-01-16T09:56:41;100304.94;;;6.03;100.00
2268;BME280;11052;43.338;25.502;2024-01-16T09:59:09;100299.44;;;6.30;100.00
2268;BME280;11052;43.338;25.502;2024-01-16T10:01:39;100301.97;;;6.35;100.00
2268;BME280;11052;43.338;25.502;2024-01-16T10:04:07;100295.25;;;6.21;100.00
2268;BME280;11052;43.338;25.502;2024-01-16T10:06:34;100308.34;;;6.05;100.00
2268;BME280;11052;43.338;25.502;2024-01-16T10:09:06;100306.78;;;5.93;100.00
2268;BME280;11052;43.338;25.502;2024-01-16T10:11:33;100320.66;;;5.74;100.00
2268;BME280;11052;43.338;25.502;2024-01-16T10:14:01;100324.81;;;5.88;100.00
2268;BME280;11052;43.338;25.502;2024-01-16T10:19:35;100333.25;;;6.04;100.00
2268;BME280;11052;43.338;25.502;2024-01-16T10:22:03;100343.75;;;5.81;100.00
2268;BME280;11052;43.338;25.502;2024-01-16T10:24:32;100341.28;;;5.68;100.00
2268;BME280;11052;43.338;25.502;2024-01-16T10:27:01;100340.47;;;5.63;100.00
2268;BME280;11052;43.338;25.502;2024-01-16T10:29:29;100342.38;;;5.44;100.00
2268;BME280;11052;43.338;25.502;2024-01-16T10:31:57;100345.84;;;5.38;100.00
2268;BME280;11052;43.338;25.502;2024-01-16T10:34:24;100350.22;;;5.25;100.00
2268;BME280;11052;43.338;25.502;2024-01-16T10:36:58;100362.19;;;5.30;100.00
2268;BME280;11052;43.338;25.502;2024-01-16T10:39:26;100369.91;;;5.28;100.00
2268;BME280;11052;43.338;25.502;2024-01-16T10:41:57;100363.91;;;5.29;100.00
2268;BME280;11052;43.338;25.502;2024-01-16T10:44:25;100367.19;;;5.48;100.00
2268;BME280;11052;43.338;25.502;2024-01-16T10:47:09;100374.75;;;5.65;100.00
2268;BME280;11052;43.338;25.502;2024-01-16T10:49:37;100377.34;;;5.62;100.00
2268;BME280;11052;43.338;25.502;2024-01-16T10:52:09;100385.72;;;5.89;100.00
2268;BME280;11052;43.338;25.502;2024-01-16T10:54:38;100371.88;;;6.00;100.00
2268;BME280;11052;43.338;25.502;2024-01-16T10:57:10;100377.75;;;6.09;100.00
2268;BME280;11052;43.338;25.502;2024-01-16T10:59:41;100386.28;;;6.14;100.00
2268;BME280;11052;43.338;25.502;2024-01-16T11:02:12;100379.13;;;6.39;100.00
2268;BME280;11052;43.338;25.502;2024-01-16T11:04:42;100382.56;;;6.40;100.00
2268;BME280;11052;43.338;25.502;2024-01-16T11:07:10;100390.06;;;6.60;100.00
2268;BME280;11052;43.338;25.502;2024-01-16T11:09:38;100395.88;;;6.74;100.00
2268;BME280;11052;43.338;25.502;2024-01-16T11:12:11;100392.63;;;6.60;100.00
2268;BME280;11052;43.338;25.502;2024-01-16T11:14:43;100399.63;;;6.50;100.00
2268;BME280;11052;43.338;25.502;2024-01-16T11:17:13;100386.94;;;6.33;100.00
2268;BME280;11052;43.338;25.502;2024-01-16T11:19:44;100405.03;;;6.25;100.00
2268;BME280;11052;43.338;25.502;2024-01-16T11:22:13;100403.41;;;6.18;100.00
2268;BME280;11052;43.338;25.502;2024-01-16T11:24:41;100408.31;;;6.40;100.00
2268;BME280;11052;43.338;25.502;2024-01-16T11:27:21;100410.69;;;6.56;100.00
2268;BME280;11052;43.338;25.502;2024-01-16T11:29:50;100406.56;;;6.42;100.00
2268;BME280;11052;43.338;25.502;2024-01-16T11:32:35;100406.94;;;6.08;100.00
2268;BME280;11052;43.338;25.502;2024-01-16T11:35:03;100412.19;;;6.01;100.00
2268;BME280;11052;43.338;25.502;2024-01-16T11:37:32;100422.56;;;5.90;100.00
2268;BME280;11052;43.338;25.502;2024-01-16T11:40:20;100425.22;;;5.78;100.00
2268;BME280;11052;43.338;25.502;2024-01-16T11:42:50;100423.56;;;5.71;100.00
2268;BME280;11052;43.338;25.502;2024-01-16T11:45:49;100427.75;;;5.82;100.00
2268;BME280;11052;43.338;25.502;2024-01-16T11:48:17;100427.72;;;5.90;100.00
2268;BME280;11052;43.338;25.502;2024-01-16T11:50:45;100439.75;;;5.83;100.00
2268;BME280;11052;43.338;25.502;2024-01-16T11:53:32;100429.41;;;5.91;100.00
2268;BME280;11052;43.338;25.502;2024-01-16T11:56:21;100437.03;;;6.03;100.00
2268;BME280;11052;43.338;25.502;2024-01-16T11:59:07;100451.81;;;5.77;100.00
2268;BME280;11052;43.338;25.502;2024-01-16T12:01:42;100447.50;;;5.77;100.00
2268;BME280;11052;43.338;25.502;2024-01-16T12:04:10;100447.56;;;5.70;100.00
2268;BME280;11052;43.338;25.502;2024-01-16T12:06:37;100456.13;;;5.72;100.00
2268;BME280;11052;43.338;25.502;2024-01-16T12:09:12;100456.94;;;5.80;100.00
2268;BME280;11052;43.338;25.502;2024-01-16T12:11:40;100460.38;;;5.76;100.00
2268;BME280;11052;43.338;25.502;2024-01-16T12:14:10;100460.31;;;5.86;100.00
2268;BME280;11052;43.338;25.502;2024-01-16T12:16:37;100462.88;;;5.89;100.00
2268;BME280;11052;43.338;25.502;2024-01-16T12:19:05;100478.19;;;6.06;100.00
2268;BME280;11052;43.338;25.502;2024-01-16T12:21:34;100470.22;;;6.28;100.00
2268;BME280;11052;43.338;25.502;2024-01-16T12:24:02;100473.53;;;6.40;100.00
2268;BME280;11052;43.338;25.502;2024-01-16T12:26:30;100477.97;;;6.26;100.00
2268;BME280;11052;43.338;25.502;2024-01-16T12:28:58;100489.34;;;6.05;100.00
2268;BME280;11052;43.338;25.502;2024-01-16T12:31:28;100491.16;;;5.88;100.00
2268;BME280;11052;43.338;25.502;2024-01-16T12:34:04;100506.72;;;5.71;100.00
2268;BME280;11052;43.338;25.502;2024-01-16T12:36:32;100510.16;;;5.69;100.00
2268;BME280;11052;43.338;25.502;2024-01-16T12:39:00;100506.88;;;5.45;100.00
2268;BME280;11052;43.338;25.502;2024-01-16T12:41:28;100506.88;;;5.45;100.00
2268;BME280;11052;43.338;25.502;2024-01-16T12:43:57;100510.25;;;5.53;100.00
2268;BME280;11052;43.338;25.502;2024-01-16T12:46:24;100505.91;;;5.65;100.00
2268;BME280;11052;43.338;25.502;2024-01-16T12:49:00;100513.72;;;5.49;100.00
2268;BME280;11052;43.338;25.502;2024-01-16T12:51:27;100515.44;;;5.46;100.00
2268;BME280;11052;43.338;25.502;2024-01-16T12:54:10;100510.28;;;5.49;100.00
2268;BME280;11052;43.338;25.502;2024-01-16T12:56:38;100512.84;;;5.52;100.00
2268;BME280;11052;43.338;25.502;2024-01-16T12:59:09;100513.78;;;5.34;100.00
2268;BME280;11052;43.338;25.502;2024-01-16T13:01:39;100511.34;;;5.17;100.00
2268;BME280;11052;43.338;25.502;2024-01-16T13:04:09;100513.97;;;5.01;100.00